Time;durP1;ratioP1;P1;durP2;ratioP2;P2;SDS_P1;SDS_P2;PMS_P1;PMS_P2;Temp;Humidity;BMP_temperature;BMP_pressure;BME280_temperature;BME280_humidity;BME280_pressure;Samples;Min_cycle;Max_cycle;Signal;HPM_P1;HPM_P2
2022/09/20 00:00:47;;;;;;;;;;;;;;;;;;5087665;28;19955;-77
2022/09/20 00:03:33;;;;;;;;;;;;;;;;;;5083734;28;20368;-77
2022/09/20 00:06:20;;;;;;;;;;;;;;;;;;5068977;28;19908;-77
2022/09/20 00:09:06;;;;;;;;;;;;;;;;;;5076396;28;19908;-76
2022/09/20 00:11:53;;;;;;;;;;;;;;;;;;5101042;28;19935;-77
2022/09/20 00:14:39;;;;;;;;;;;;;;;;;;5089937;28;20283;-76
2022/09/20 00:17:26;;;;;;;;;;;;;;;;;;5096312;28;19911;-76
2022/09/20 00:20:12;;;;;;;;;;;;;;;;;;5090500;28;20260;-76
2022/09/20 00:22:59;;;;;;;;;;;;;;;;;;5091802;28;19908;-77
2022/09/20 00:25:45;;;;;;;;;;;;;;;;;;5084954;28;19928;-77
2022/09/20 00:28:33;;;;;;;;;;;;;;;;;;5087922;28;19923;-76
2022/09/20 00:31:19;;;;;;;;;;;;;;;;;;5083790;27;19920;-76
2022/09/20 00:37:11;;;;;;;;;;;;;;;;;;5084451;28;20256;-76
2022/09/20 00:39:58;;;;;;;;;;;;;;;;;;5084701;28;19971;-77
2022/09/20 00:42:44;;;;;;;;;;;;;;;;;;5080819;28;19930;-76
2022/09/20 00:45:31;;;;;;;;;;;;;;;;;;5091350;28;19927;-78
2022/09/20 00:48:17;;;;;;;;;;;;;;;;;;5081145;28;19911;-77
2022/09/20 00:51:04;;;;;;;;;;;;;;;;;;5078744;28;20496;-77
2022/09/20 00:53:51;;;;;;;;;;;;;;;;;;5081627;28;19916;-77
2022/09/20 00:56:38;;;;;;;;;;;;;;;;;;5068592;28;19969;-77
2022/09/20 00:59:24;;;;;;;;;;;;;;;;;;5091612;28;19918;-77
2022/09/20 01:02:10;;;;;;;;;;;;;;;;;;5077707;28;20023;-77
2022/09/20 01:04:57;;;;;;;;;;;;;;;;;;5070275;28;19912;-77
2022/09/20 01:07:44;;;;;;;;;;;;;;;;;;5090485;28;19912;-77
2022/09/20 01:10:30;;;;;;;;;;;;;;;;;;5073311;28;19987;-77
2022/09/20 01:13:16;;;;;;;;;;;;;;;;;;5082843;28;20379;-77
2022/09/20 01:16:03;;;;;;;;;;;;;;;;;;5078738;28;19916;-77
2022/09/20 01:18:49;;;;;;;;;;;;;;;;;;5080632;28;20374;-77
2022/09/20 01:21:36;;;;;;;;;;;;;;;;;;5083728;28;19927;-76
2022/09/20 01:24:22;;;;;;;;;;;;;;;;;;5071345;28;19913;-77
2022/09/20 01:27:09;;;;;;;;;;;;;;;;;;5075924;28;19916;-77
2022/09/20 01:29:56;;;;;;;;;;;;;;;;;;5079622;28;20244;-77
2022/09/20 01:32:42;;;;;;;;;;;;;;;;;;5072388;28;19935;-77
2022/09/20 01:35:29;;;;;;;;;;;;;;;;;;5087226;28;19919;-77
2022/09/20 01:38:15;;;;;;;;;;;;;;;;;;5093111;28;19931;-77
2022/09/20 01:41:02;;;;;;;;;;;;;;;;;;5090706;28;19915;-76
2022/09/20 01:43:49;;;;;;;;;;;;;;;;;;5083710;28;19908;-76
2022/09/20 01:46:35;;;;;;;;;;;;;;;;;;5090211;28;19996;-78
2022/09/20 01:49:22;;;;;;;;;;;;;;;;;;5083456;28;19983;-77
2022/09/20 01:52:08;;;;;;;;;;;;;;;;;;5075214;28;19917;-77
2022/09/20 01:54:56;;;;;;;;;;;;;;;;;;5091958;28;20257;-77
2022/09/20 01:57:43;;;;;;;;;;;;;;;;;;5098819;28;19912;-76
2022/09/20 02:00:33;;;;;;;;;;;;;;;;;;5070915;28;19928;-76
2022/09/20 02:03:20;;;;;;;;;;;;;;;;;;5092787;28;20105;-76
2022/09/20 02:06:06;;;;;;;;;;;;;;;;;;5086999;28;19916;-77
2022/09/20 02:08:53;;;;;;;;;;;;;;;;;;5078087;28;19916;-77
2022/09/20 02:11:39;;;;;;;;;;;;;;;;;;5085541;28;19920;-77
2022/09/20 02:14:26;;;;;;;;;;;;;;;;;;5089049;28;19923;-77
2022/09/20 02:17:12;;;;;;;;;;;;;;;;;;5081262;28;19923;-77
2022/09/20 02:19:59;;;;;;;;;;;;;;;;;;5088309;28;19923;-77
2022/09/20 02:22:45;;;;;;;;;;;;;;;;;;5077039;28;19925;-77
2022/09/20 02:25:32;;;;;;;;;;;;;;;;;;5074596;28;19928;-77
2022/09/20 02:28:18;;;;;;;;;;;;;;;;;;5092498;28;20290;-77
2022/09/20 02:31:05;;;;;;;;;;;;;;;;;;5098998;28;19912;-77
2022/09/20 02:33:51;;;;;;;;;;;;;;;;;;5088392;28;19928;-78
2022/09/20 02:36:38;;;;;;;;;;;;;;;;;;5081059;28;19915;-76
2022/09/20 02:39:24;;;;;;;;;;;;;;;;;;5078440;28;19976;-76
2022/09/20 02:42:11;;;;;;;;;;;;;;;;;;5094823;28;20011;-77
2022/09/20 02:44:57;;;;;;;;;;;;;;;;;;5080362;28;19919;-77
2022/09/20 02:47:44;;;;;;;;;;;;;;;;;;5087708;28;19912;-77
2022/09/20 02:50:30;;;;;;;;;;;;;;;;;;5086793;28;19916;-77
2022/09/20 02:53:17;;;;;;;;;;;;;;;;;;5088944;28;19930;-77
2022/09/20 02:56:03;;;;;;;;;;;;;;;;;;5073754;28;19912;-77
2022/09/20 02:58:50;;;;;;;;;;;;;;;;;;5090717;28;19912;-77
2022/09/20 03:01:36;;;;;;;;;;;;;;;;;;5089451;28;19923;-77
2022/09/20 03:04:23;;;;;;;;;;;;;;;;;;5065672;28;19912;-76
2022/09/20 03:07:09;;;;;;;;;;;;;;;;;;5079971;28;20388;-77
2022/09/20 03:09:56;;;;;;;;;;;;;;;;;;5079802;28;19918;-77
2022/09/20 03:12:43;;;;;;;;;;;;;;;;;;5079596;28;20380;-77
2022/09/20 03:15:29;;;;;;;;;;;;;;;;;;5081353;28;20359;-77
2022/09/20 03:18:16;;;;;;;;;;;;;;;;;;5088180;28;19938;-76
2022/09/20 03:21:02;;;;;;;;;;;;;;;;;;5072146;28;19918;-76
2022/09/20 03:23:49;;;;;;;;;;;;;;;;;;5078587;28;19912;-76
2022/09/20 03:26:35;;;;;;;;;;;;;;;;;;5073153;28;20380;-77
2022/09/20 03:29:22;;;;;;;;;;;;;;;;;;5075572;28;19918;-77
2022/09/20 03:32:08;;;;;;;;;;;;;;;;;;5081061;28;19912;-76
2022/09/20 03:34:55;;;;;;;;;;;;;;;;;;5088465;28;19917;-75
2022/09/20 03:37:41;;;;;;;;;;;;;;;;;;5080117;28;19950;-77
2022/09/20 03:40:28;;;;;;;;;;;;;;;;;;5071575;28;19920;-76
2022/09/20 03:43:14;;;;;;;;;;;;;;;;;;5091789;28;19912;-76
2022/09/20 03:46:01;;;;;;;;;;;;;;;;;;5088448;28;19916;-77
2022/09/20 03:48:47;;;;;;;;;;;;;;;;;;5069612;28;19932;-77
2022/09/20 03:51:34;;;;;;;;;;;;;;;;;;5081235;28;19921;-76
2022/09/20 03:54:20;;;;;;;;;;;;;;;;;;5086000;28;19916;-77
2022/09/20 03:57:07;;;;;;;;;;;;;;;;;;5070350;28;19951;-77
2022/09/20 03:59:53;;;;;;;;;;;;;;;;;;5071475;28;19908;-77
2022/09/20 04:02:40;;;;;;;;;;;;;;;;;;5088702;28;20706;-77
2022/09/20 04:05:26;;;;;;;;;;;;;;;;;;5071843;28;19923;-78
2022/09/20 04:08:13;;;;;;;;;;;;;;;;;;5074869;28;19909;-78
2022/09/20 04:10:59;;;;;;;;;;;;;;;;;;5078070;28;19908;-78
2022/09/20 04:13:46;;;;;;;;;;;;;;;;;;5074505;28;19942;-78
2022/09/20 04:16:33;;;;;;;;;;;;;;;;;;5082957;28;19914;-77
2022/09/20 04:19:19;;;;;;;;;;;;;;;;;;5087674;28;19923;-76
2022/09/20 04:22:06;;;;;;;;;;;;;;;;;;5080486;28;19935;-77
2022/09/20 04:24:52;;;;;;;;;;;;;;;;;;5074032;28;19928;-77
2022/09/20 04:27:39;;;;;;;;;;;;;;;;;;5071669;28;20371;-77
2022/09/20 04:30:29;;;;;;;;;;;;;;;;;;5073559;28;20486;-77
2022/09/20 04:33:15;;;;;;;;;;;;;;;;;;5077231;28;19935;-78
2022/09/20 04:39:07;;;;;;;;;;;;;;;;;;5078313;28;19912;-77
2022/09/20 04:41:54;;;;;;;;;;;;;;;;;;5083987;28;19916;-78
2022/09/20 04:44:41;;;;;;;;;;;;;;;;;;5084488;28;19912;-76
2022/09/20 04:47:27;;;;;;;;;;;;;;;;;;5088642;28;19912;-76
2022/09/20 04:50:14;;;;;;;;;;;;;;;;;;5097036;28;20443;-76
2022/09/20 04:53:01;;;;;;;;;;;;;;;;;;5093269;28;19919;-76
2022/09/20 04:55:47;;;;;;;;;;;;;;;;;;5073565;28;19917;-76
2022/09/20 04:58:35;;;;;;;;;;;;;;;;;;5082598;28;19916;-77
2022/09/20 05:01:21;;;;;;;;;;;;;;;;;;5085170;28;19919;-77
2022/09/20 05:04:08;;;;;;;;;;;;;;;;;;5082621;28;19920;-77
2022/09/20 05:06:54;;;;;;;;;;;;;;;;;;5086139;28;19919;-78
2022/09/20 05:09:41;;;;;;;;;;;;;;;;;;5072195;28;19919;-78
2022/09/20 05:12:27;;;;;;;;;;;;;;;;;;5081697;28;19962;-77
2022/09/20 05:15:15;;;;;;;;;;;;;;;;;;5076401;28;19915;-77
2022/09/20 05:18:01;;;;;;;;;;;;;;;;;;5073027;28;19912;-78
2022/09/20 05:20:48;;;;;;;;;;;;;;;;;;5068341;28;19919;-79
2022/09/20 05:23:34;;;;;;;;;;;;;;;;;;5086876;28;19923;-77
2022/09/20 05:26:21;;;;;;;;;;;;;;;;;;5100078;28;19951;-76
2022/09/20 05:29:08;;;;;;;;;;;;;;;;;;5076824;28;19918;-77
2022/09/20 05:31:55;;;;;;;;;;;;;;;;;;5071602;28;19913;-77
2022/09/20 05:34:42;;;;;;;;;;;;;;;;;;5072199;28;19938;-78
2022/09/20 05:37:29;;;;;;;;;;;;;;;;;;5086752;28;19967;-76
2022/09/20 05:40:15;;;;;;;;;;;;;;;;;;5091987;28;19920;-77
2022/09/20 05:43:01;;;;;;;;;;;;;;;;;;5088105;28;19912;-77
2022/09/20 05:45:48;;;;;;;;;;;;;;;;;;5080751;28;20329;-77
2022/09/20 05:48:35;;;;;;;;;;;;;;;;;;5073398;28;19909;-77
2022/09/20 05:51:21;;;;;;;;;;;;;;;;;;5096302;28;19912;-77
2022/09/20 05:54:07;;;;;;;;;;;;;;;;;;5079748;28;20364;-77
2022/09/20 05:56:54;;;;;;;;;;;;;;;;;;5072524;28;20333;-77
2022/09/20 05:59:40;;;;;;;;;;;;;;;;;;5074370;28;19916;-76
2022/09/20 06:02:27;;;;;;;;;;;;;;;;;;5075272;28;19991;-77
2022/09/20 06:05:13;;;;;;;;;;;;;;;;;;5086570;28;19959;-78
2022/09/20 06:08:01;;;;;;;;;;;;;;;;;;5080221;28;19912;-77
2022/09/20 06:10:48;;;;;;;;;;;;;;;;;;5082890;28;19912;-77
2022/09/20 06:13:34;;;;;;;;;;;;;;;;;;5087601;28;19930;-77
2022/09/20 06:16:20;;;;;;;;;;;;;;;;;;5090873;28;20340;-78
2022/09/20 06:19:07;;;;;;;;;;;;;;;;;;5079361;28;19935;-76
2022/09/20 06:21:53;;;;;;;;;;;;;;;;;;5075573;28;19908;-76
2022/09/20 06:24:40;;;;;;;;;;;;;;;;;;5079297;28;19950;-76
2022/09/20 06:27:26;;;;;;;;;;;;;;;;;;5080332;28;20368;-77
2022/09/20 06:30:13;;;;;;;;;;;;;;;;;;5073915;28;19944;-78
2022/09/20 06:33:00;;;;;;;;;;;;;;;;;;5082417;28;19919;-77
2022/09/20 06:35:47;;;;;;;;;;;;;;;;;;5076648;28;19922;-76
2022/09/20 06:41:38;;;;;;;;;;;;;;;;;;5085115;28;19946;-77
2022/09/20 06:44:24;;;;;;;;;;;;;;;;;;5078640;28;20347;-78
2022/09/20 06:47:11;;;;;;;;;;;;;;;;;;5078176;28;20395;-78
2022/09/20 06:49:58;;;;;;;;;;;;;;;;;;5082971;28;19939;-80
2022/09/20 06:52:46;;;;;;;;;;;;;;;;;;5073713;28;20291;-80
2022/09/20 06:55:33;;;;;;;;;;;;;;;;;;5069720;28;19918;-80
2022/09/20 06:58:20;;;;;;;;;;;;;;;;;;5077300;28;20019;-78
2022/09/20 07:01:06;;;;;;;;;;;;;;;;;;5086522;28;19919;-80
2022/09/20 07:03:53;;;;;;;;;;;;;;;;;;5070405;28;19919;-80
2022/09/20 07:06:39;;;;;;;;;;;;;;;;;;5084650;28;19919;-81
2022/09/20 07:09:26;;;;;;;;;;;;;;;;;;5081802;28;19951;-80
2022/09/20 07:12:13;;;;;;;;;;;;;;;;;;5082837;28;19913;-80
2022/09/20 07:14:59;;;;;;;;;;;;;;;;;;5079498;28;19922;-80
2022/09/20 07:17:48;;;;;;;;;;;;;;;;;;5082123;28;20232;-81
2022/09/20 07:20:34;;;;;;;;;;;;;;;;;;5079345;28;19934;-80
2022/09/20 07:23:21;;;;;;;;;;;;;;;;;;5071775;28;20379;-80
2022/09/20 07:26:07;;;;;;;;;;;;;;;;;;5082445;28;19924;-81
2022/09/20 07:28:54;;;;;;;;;;;;;;;;;;5061984;28;19908;-80
2022/09/20 07:31:40;;;;;;;;;;;;;;;;;;5072602;28;19915;-81
2022/09/20 07:34:28;;;;;;;;;;;;;;;;;;5082542;28;19924;-82
2022/09/20 07:37:14;;;;;;;;;;;;;;;;;;5070914;28;19919;-81
2022/09/20 07:40:01;;;;;;;;;;;;;;;;;;5080892;28;21095;-81
2022/09/20 07:42:47;;;;;;;;;;;;;;;;;;5079784;28;19916;-81
2022/09/20 07:45:34;;;;;;;;;;;;;;;;;;5075663;28;19912;-81
2022/09/20 07:48:21;;;;;;;;;;;;;;;;;;5071656;28;19924;-81
2022/09/20 07:51:07;;;;;;;;;;;;;;;;;;5083099;28;19916;-81
2022/09/20 07:53:54;;;;;;;;;;;;;;;;;;5070076;28;20465;-81
2022/09/20 07:56:40;;;;;;;;;;;;;;;;;;5100069;28;19912;-81
2022/09/20 07:59:27;;;;;;;;;;;;;;;;;;5070415;28;20363;-81
2022/09/20 08:02:13;;;;;;;;;;;;;;;;;;5073096;28;19912;-81
2022/09/20 08:05:00;;;;;;;;;;;;;;;;;;5087866;28;20292;-81
2022/09/20 08:07:46;;;;;;;;;;;;;;;;;;5082421;28;19908;-81
2022/09/20 08:10:33;;;;;;;;;;;;;;;;;;5080945;28;19910;-81
2022/09/20 08:13:19;;;;;;;;;;;;;;;;;;5095569;28;19917;-81
2022/09/20 08:16:06;;;;;;;;;;;;;;;;;;5075219;28;19943;-81
2022/09/20 08:18:54;;;;;;;;;;;;;;;;;;5073955;28;19912;-80
2022/09/20 08:21:41;;;;;;;;;;;;;;;;;;5084050;28;19914;-81
2022/09/20 08:24:27;;;;;;;;;;;;;;;;;;5084491;28;19931;-80
2022/09/20 08:27:14;;;;;;;;;;;;;;;;;;5094150;28;19907;-81
2022/09/20 08:30:00;;;;;;;;;;;;;;;;;;5093742;28;19911;-81
2022/09/20 08:32:47;;;;;;;;;;;;;;;;;;5090467;28;19920;-80
2022/09/20 08:35:33;;;;;;;;;;;;;;;;;;5074192;28;19920;-80
2022/09/20 08:38:21;;;;;;;;;;;;;;;;;;5080632;28;19935;-80
2022/09/20 08:41:07;;;;;;;;;;;;;;;;;;5095027;28;20308;-80
2022/09/20 08:43:54;;;;;;;;;;;;;;;;;;5084827;28;20361;-81
2022/09/20 08:46:40;;;;;;;;;;;;;;;;;;5090513;28;19916;-81
2022/09/20 08:49:27;;;;;;;;;;;;;;;;;;5078701;28;20306;-81
2022/09/20 08:52:13;;;;;;;;;;;;;;;;;;5069621;28;19923;-81
2022/09/20 08:55:00;;;;;;;;;;;;;;;;;;5081879;28;20579;-80
2022/09/20 08:57:47;;;;;;;;;;;;;;;;;;5063690;28;19909;-81
2022/09/20 09:00:34;;;;;;;;;;;;;;;;;;5088477;28;20231;-81
2022/09/20 09:03:20;;;;;;;;;;;;;;;;;;5074978;28;19919;-81
2022/09/20 09:06:07;;;;;;;;;;;;;;;;;;5068821;28;19908;-81
2022/09/20 09:08:54;;;;;;;;;;;;;;;;;;5081588;28;19931;-81
2022/09/20 09:11:40;;;;;;;;;;;;;;;;;;5076270;28;19913;-81
2022/09/20 09:17:32;;;;;;;;;;;;;;;;;;5076035;28;19913;-80
2022/09/20 09:20:20;;;;;;;;;;;;;;;;;;5095904;28;19911;-81
2022/09/20 09:23:07;;;;;;;;;;;;;;;;;;5078518;28;19915;-81
2022/09/20 09:25:54;;;;;;;;;;;;;;;;;;5087406;28;19930;-81
2022/09/20 09:28:40;;;;;;;;;;;;;;;;;;5085258;28;19912;-81
2022/09/20 09:31:27;;;;;;;;;;;;;;;;;;5070578;28;20008;-80
2022/09/20 09:34:14;;;;;;;;;;;;;;;;;;5060338;28;19916;-81
2022/09/20 09:37:00;;;;;;;;;;;;;;;;;;5082817;28;19909;-81
2022/09/20 09:39:47;;;;;;;;;;;;;;;;;;5076087;28;19908;-81
2022/09/20 09:42:34;;;;;;;;;;;;;;;;;;5079576;28;19914;-81
2022/09/20 09:45:21;;;;;;;;;;;;;;;;;;5093239;28;19912;-81
2022/09/20 09:48:07;;;;;;;;;;;;;;;;;;5075799;28;20083;-81
2022/09/20 09:50:57;;;;;;;;;;;;;;;;;;5080656;28;19918;-80
2022/09/20 09:53:44;;;;;;;;;;;;;;;;;;5082038;28;20298;-81
2022/09/20 09:56:30;;;;;;;;;;;;;;;;;;5081537;28;19912;-80
2022/09/20 09:59:17;;;;;;;;;;;;;;;;;;5082507;28;19908;-80
2022/09/20 10:02:03;;;;;;;;;;;;;;;;;;5066048;28;19908;-80
2022/09/20 10:04:50;;;;;;;;;;;;;;;;;;5081418;28;19912;-81
2022/09/20 10:07:36;;;;;;;;;;;;;;;;;;5070678;28;19908;-81
2022/09/20 10:10:23;;;;;;;;;;;;;;;;;;5074771;28;19923;-81
2022/09/20 10:13:10;;;;;;;;;;;;;;;;;;5075690;28;19919;-81
2022/09/20 10:15:56;;;;;;;;;;;;;;;;;;5088074;28;19943;-80
2022/09/20 10:18:43;;;;;;;;;;;;;;;;;;5088427;28;19918;-80
2022/09/20 10:21:29;;;;;;;;;;;;;;;;;;5076118;28;19912;-79
2022/09/20 10:24:16;;;;;;;;;;;;;;;;;;5059466;28;20285;-80
2022/09/20 10:27:02;;;;;;;;;;;;;;;;;;5086161;28;19915;-80
2022/09/20 10:29:51;;;;;;;;;;;;;;;;;;5085447;28;19908;-81
2022/09/20 10:32:38;;;;;;;;;;;;;;;;;;5076617;28;19920;-81
2022/09/20 10:35:24;;;;;;;;;;;;;;;;;;5088448;28;20373;-80
2022/09/20 10:38:12;;;;;;;;;;;;;;;;;;5091012;28;19912;-81
2022/09/20 10:44:03;;;;;;;;;;;;;;;;;;5076131;28;19908;-81
2022/09/20 10:46:50;;;;;;;;;;;;;;;;;;5094824;28;19915;-81
2022/09/20 10:49:36;;;;;;;;;;;;;;;;;;5077355;28;19931;-81
2022/09/20 10:52:23;;;;;;;;;;;;;;;;;;5078447;28;19908;-81
2022/09/20 10:55:09;;;;;;;;;;;;;;;;;;5084878;28;19912;-81
2022/09/20 10:57:56;;;;;;;;;;;;;;;;;;5078887;28;20295;-81
2022/09/20 11:00:43;;;;;;;;;;;;;;;;;;5071053;28;19995;-81
2022/09/20 11:03:30;;;;;;;;;;;;;;;;;;5087736;28;19917;-80
2022/09/20 11:06:16;;;;;;;;;;;;;;;;;;5074802;28;20459;-82
2022/09/20 11:09:03;;;;;;;;;;;;;;;;;;5071320;28;20379;-80
2022/09/20 11:11:49;;;;;;;;;;;;;;;;;;5076978;28;19912;-80
2022/09/20 11:14:36;;;;;;;;;;;;;;;;;;5081876;28;19920;-80
2022/09/20 11:17:22;;;;;;;;;;;;;;;;;;5075014;28;19916;-80
2022/09/20 11:20:09;;;;;;;;;;;;;;;;;;5082984;28;19912;-80
2022/09/20 11:22:55;;;;;;;;;;;;;;;;;;5068878;28;20283;-80
2022/09/20 11:25:43;;;;;;;;;;;;;;;;;;5049819;28;19943;-81
2022/09/20 11:28:29;;;;;;;;;;;;;;;;;;5060121;28;19920;-80
2022/09/20 11:31:16;;;;;;;;;;;;;;;;;;5070462;28;19919;-81
2022/09/20 11:34:03;;;;;;;;;;;;;;;;;;5055582;28;19921;-80
2022/09/20 11:36:51;;;;;;;;;;;;;;;;;;5069306;28;19909;-80
2022/09/20 11:39:38;;;;;;;;;;;;;;;;;;5066100;28;19912;-80
2022/09/20 11:42:25;;;;;;;;;;;;;;;;;;5068686;28;19927;-80
2022/09/20 11:45:12;;;;;;;;;;;;;;;;;;5050435;28;19912;-81
2022/09/20 11:47:59;;;;;;;;;;;;;;;;;;5061498;28;19912;-81
2022/09/20 11:50:45;;;;;;;;;;;;;;;;;;5054377;28;19932;-81
2022/09/20 11:53:32;;;;;;;;;;;;;;;;;;5060954;28;20276;-81
2022/09/20 11:56:19;;;;;;;;;;;;;;;;;;5056892;28;19917;-81
2022/09/20 11:59:06;;;;;;;;;;;;;;;;;;5048779;28;19913;-80
2022/09/20 12:01:52;;;;;;;;;;;;;;;;;;5056693;28;19916;-80
2022/09/20 12:04:39;;;;;;;;;;;;;;;;;;5057840;28;19917;-81
2022/09/20 12:07:25;;;;;;;;;;;;;;;;;;5053922;28;19913;-80
2022/09/20 12:10:12;;;;;;;;;;;;;;;;;;5053957;28;19912;-80
2022/09/20 12:12:58;;;;;;;;;;;;;;;;;;5062068;28;19926;-80
2022/09/20 12:15:45;;;;;;;;;;;;;;;;;;5060766;28;19923;-81
2022/09/20 12:18:31;;;;;;;;;;;;;;;;;;5057198;28;20378;-80
2022/09/20 12:21:19;;;;;;;;;;;;;;;;;;5043687;28;19908;-81
2022/09/20 12:24:06;;;;;;;;;;;;;;;;;;5050191;28;20292;-80
2022/09/20 12:26:54;;;;;;;;;;;;;;;;;;5047294;28;19917;-81
2022/09/20 12:29:41;;;;;;;;;;;;;;;;;;5060114;28;19912;-80
2022/09/20 12:32:28;;;;;;;;;;;;;;;;;;5053508;28;19912;-81
2022/09/20 12:35:14;;;;;;;;;;;;;;;;;;5046185;28;20300;-81
2022/09/20 12:38:01;;;;;;;;;;;;;;;;;;5070908;28;20328;-81
2022/09/20 12:40:47;;;;;;;;;;;;;;;;;;5059162;28;20344;-80
2022/09/20 12:43:34;;;;;;;;;;;;;;;;;;5068091;28;20237;-80
2022/09/20 12:46:20;;;;;;;;;;;;;;;;;;5060974;28;19916;-81
2022/09/20 12:49:07;;;;;;;;;;;;;;;;;;5065716;28;19920;-80
2022/09/20 12:54:59;;;;;;;;;;;;;;;;;;5057791;28;19924;-81
2022/09/20 12:57:45;;;;;;;;;;;;;;;;;;5055467;28;19913;-80
2022/09/20 13:00:33;;;;;;;;;;;;;;;;;;5060567;28;19909;-80
2022/09/20 13:03:22;;;;;;;;;;;;;;;;;;5045485;28;19920;-80
2022/09/20 13:06:10;;;;;;;;;;;;;;;;;;5062133;28;20596;-80
2022/09/20 13:08:57;;;;;;;;;;;;;;;;;;5058862;28;19919;-81
2022/09/20 13:11:44;;;;;;;;;;;;;;;;;;5054674;28;19917;-80
2022/09/20 13:14:31;;;;;;;;;;;;;;;;;;5056809;28;19920;-80
2022/09/20 13:17:17;;;;;;;;;;;;;;;;;;5062123;28;19909;-80
2022/09/20 13:20:05;;;;;;;;;;;;;;;;;;5063696;28;19913;-80
2022/09/20 13:22:51;;;;;;;;;;;;;;;;;;5053422;28;19924;-80
2022/09/20 13:25:38;;;;;;;;;;;;;;;;;;5056393;28;19920;-81
2022/09/20 13:28:24;;;;;;;;;;;;;;;;;;5067024;28;19908;-81
2022/09/20 13:31:11;;;;;;;;;;;;;;;;;;5066897;28;19927;-83
2022/09/20 13:33:58;;;;;;;;;;;;;;;;;;5062673;28;19917;-79
2022/09/20 13:36:44;;;;;;;;;;;;;;;;;;5039721;28;19909;-80
2022/09/20 13:39:31;;;;;;;;;;;;;;;;;;5074823;28;19919;-80
2022/09/20 13:42:18;;;;;;;;;;;;;;;;;;5071883;28;20023;-80
2022/09/20 13:45:05;;;;;;;;;;;;;;;;;;5050149;28;20771;-82
2022/09/20 13:47:53;;;;;;;;;;;;;;;;;;5058145;28;20396;-80
2022/09/20 13:50:40;;;;;;;;;;;;;;;;;;5076225;28;20348;-81
2022/09/20 13:53:26;;;;;;;;;;;;;;;;;;5058507;28;19919;-81
2022/09/20 13:56:13;;;;;;;;;;;;;;;;;;5070077;28;19920;-82
2022/09/20 13:58:59;;;;;;;;;;;;;;;;;;5073963;28;19912;-80
2022/09/20 14:01:46;;;;;;;;;;;;;;;;;;5072688;28;20010;-80
2022/09/20 14:04:32;;;;;;;;;;;;;;;;;;5063558;28;20465;-81
2022/09/20 14:07:19;;;;;;;;;;;;;;;;;;5075341;28;19920;-80
2022/09/20 14:10:05;;;;;;;;;;;;;;;;;;5076653;28;19921;-81
2022/09/20 14:12:52;;;;;;;;;;;;;;;;;;5073502;28;20232;-80
2022/09/20 14:15:38;;;;;;;;;;;;;;;;;;5054996;28;19970;-81
2022/09/20 14:18:26;;;;;;;;;;;;;;;;;;5081159;28;19919;-81
2022/09/20 14:21:12;;;;;;;;;;;;;;;;;;5078875;28;20301;-78
2022/09/20 14:24:02;;;;;;;;;;;;;;;;;;5049959;28;19917;-79
2022/09/20 14:26:49;;;;;;;;;;;;;;;;;;5081102;28;20011;-78
2022/09/20 14:29:36;;;;;;;;;;;;;;;;;;5077954;28;19918;-78
2022/09/20 14:32:22;;;;;;;;;;;;;;;;;;5089560;28;19915;-79
2022/09/20 14:35:09;;;;;;;;;;;;;;;;;;5088394;28;19922;-79
2022/09/20 14:37:56;;;;;;;;;;;;;;;;;;5090557;28;19916;-79
2022/09/20 14:40:42;;;;;;;;;;;;;;;;;;5079263;28;19912;-79
2022/09/20 14:43:32;;;;;;;;;;;;;;;;;;5084582;28;19916;-79
2022/09/20 14:46:19;;;;;;;;;;;;;;;;;;5065266;28;20593;-79
2022/09/20 14:49:05;;;;;;;;;;;;;;;;;;5065621;28;19912;-79
2022/09/20 14:51:52;;;;;;;;;;;;;;;;;;5071577;28;19919;-79
2022/09/20 14:54:38;;;;;;;;;;;;;;;;;;5083801;28;19931;-79
2022/09/20 14:57:25;;;;;;;;;;;;;;;;;;5080756;28;19915;-79
2022/09/20 15:00:11;;;;;;;;;;;;;;;;;;5081303;28;19916;-78
2022/09/20 15:02:58;;;;;;;;;;;;;;;;;;5093163;28;19913;-79
2022/09/20 15:05:44;;;;;;;;;;;;;;;;;;5069026;28;19923;-78
2022/09/20 15:08:31;;;;;;;;;;;;;;;;;;5073540;28;19919;-79
2022/09/20 15:11:17;;;;;;;;;;;;;;;;;;5082290;28;19918;-80
2022/09/20 15:14:04;;;;;;;;;;;;;;;;;;5078451;28;19927;-80
2022/09/20 15:16:50;;;;;;;;;;;;;;;;;;5076676;28;19913;-79
2022/09/20 15:19:37;;;;;;;;;;;;;;;;;;5082929;27;19915;-81
2022/09/20 15:22:23;;;;;;;;;;;;;;;;;;5080791;28;19919;-80
2022/09/20 15:25:10;;;;;;;;;;;;;;;;;;5081091;28;19931;-80
2022/09/20 15:27:57;;;;;;;;;;;;;;;;;;5080051;28;19908;-79
2022/09/20 15:30:44;;;;;;;;;;;;;;;;;;5076979;28;19924;-80
2022/09/20 15:33:31;;;;;;;;;;;;;;;;;;5077661;28;19920;-81
2022/09/20 15:36:17;;;;;;;;;;;;;;;;;;5079951;28;20390;-81
2022/09/20 15:39:04;;;;;;;;;;;;;;;;;;5067920;28;19912;-80
2022/09/20 15:41:50;;;;;;;;;;;;;;;;;;5077100;28;19916;-81
2022/09/20 15:44:37;;;;;;;;;;;;;;;;;;5081503;28;19908;-81
2022/09/20 15:47:23;;;;;;;;;;;;;;;;;;5081099;28;19912;-80
2022/09/20 15:50:10;;;;;;;;;;;;;;;;;;5075030;28;19935;-81
2022/09/20 15:52:56;;;;;;;;;;;;;;;;;;5081213;28;19908;-81
2022/09/20 15:55:43;;;;;;;;;;;;;;;;;;5086108;28;19970;-81
2022/09/20 15:58:29;;;;;;;;;;;;;;;;;;5077062;28;19918;-82
2022/09/20 16:01:16;;;;;;;;;;;;;;;;;;5075085;28;19912;-80
2022/09/20 16:04:02;;;;;;;;;;;;;;;;;;5074641;28;20379;-80
2022/09/20 16:06:49;;;;;;;;;;;;;;;;;;5071313;28;19957;-81
2022/09/20 16:09:37;;;;;;;;;;;;;;;;;;5067031;28;19931;-81
2022/09/20 16:12:24;;;;;;;;;;;;;;;;;;5077567;28;19912;-80
2022/09/20 16:15:13;;;;;;;;;;;;;;;;;;5080153;28;20011;-82
2022/09/20 16:21:05;;;;;;;;;;;;;;;;;;5096012;28;19909;-80
2022/09/20 16:23:52;;;;;;;;;;;;;;;;;;5067174;28;19912;-82
2022/09/20 16:26:38;;;;;;;;;;;;;;;;;;5079587;28;19920;-81
2022/09/20 16:29:25;;;;;;;;;;;;;;;;;;5076790;28;19920;-80
2022/09/20 16:32:12;;;;;;;;;;;;;;;;;;5067097;28;19909;-80
2022/09/20 16:35:02;;;;;;;;;;;;;;;;;;5083038;28;20372;-80
2022/09/20 16:37:49;;;;;;;;;;;;;;;;;;5074525;28;20292;-81
2022/09/20 16:40:36;;;;;;;;;;;;;;;;;;5072748;28;20295;-79
2022/09/20 16:43:23;;;;;;;;;;;;;;;;;;5078184;28;19920;-80
2022/09/20 16:46:10;;;;;;;;;;;;;;;;;;5078435;28;19919;-78
2022/09/20 16:48:59;;;;;;;;;;;;;;;;;;5074220;28;19913;-82
2022/09/20 16:51:46;;;;;;;;;;;;;;;;;;5081451;28;19923;-79
2022/09/20 16:54:32;;;;;;;;;;;;;;;;;;5083095;28;20529;-81
2022/09/20 16:57:21;;;;;;;;;;;;;;;;;;5071388;28;19919;-80
2022/09/20 17:00:08;;;;;;;;;;;;;;;;;;5088315;28;19918;-79
2022/09/20 17:02:55;;;;;;;;;;;;;;;;;;5079129;28;19908;-79
2022/09/20 17:05:41;;;;;;;;;;;;;;;;;;5068308;28;19919;-80
2022/09/20 17:08:28;;;;;;;;;;;;;;;;;;5081523;28;19912;-79
2022/09/20 17:11:14;;;;;;;;;;;;;;;;;;5075187;28;19917;-80
2022/09/20 17:14:01;;;;;;;;;;;;;;;;;;5078419;28;19938;-80
2022/09/20 17:16:48;;;;;;;;;;;;;;;;;;5075343;28;19916;-80
2022/09/20 17:19:34;;;;;;;;;;;;;;;;;;5085922;28;19918;-79
2022/09/20 17:22:21;;;;;;;;;;;;;;;;;;5084626;28;19922;-80
2022/09/20 17:25:07;;;;;;;;;;;;;;;;;;5074465;28;20282;-79
2022/09/20 17:27:53;;;;;;;;;;;;;;;;;;5087100;28;19908;-78
2022/09/20 17:30:40;;;;;;;;;;;;;;;;;;5070118;28;19932;-79
2022/09/20 17:33:30;;;;;;;;;;;;;;;;;;5084508;28;20405;-79
2022/09/20 17:36:17;;;;;;;;;;;;;;;;;;5088359;28;20321;-80
2022/09/20 17:39:04;;;;;;;;;;;;;;;;;;5101329;28;19908;-79
2022/09/20 17:41:50;;;;;;;;;;;;;;;;;;5091469;28;19927;-79
2022/09/20 17:44:37;;;;;;;;;;;;;;;;;;5076535;28;19942;-79
2022/09/20 17:47:24;;;;;;;;;;;;;;;;;;5086138;27;19917;-79
2022/09/20 17:50:13;;;;;;;;;;;;;;;;;;5086966;28;19916;-79
2022/09/20 17:53:00;;;;;;;;;;;;;;;;;;5071108;28;19923;-80
2022/09/20 17:55:46;;;;;;;;;;;;;;;;;;5078556;28;19920;-80
2022/09/20 17:58:33;;;;;;;;;;;;;;;;;;5079923;28;19913;-79
2022/09/20 18:01:19;;;;;;;;;;;;;;;;;;5083660;28;19916;-80
2022/09/20 18:04:06;;;;;;;;;;;;;;;;;;5091258;28;19915;-80
2022/09/20 18:06:52;;;;;;;;;;;;;;;;;;5082801;28;19913;-79
2022/09/20 18:09:39;;;;;;;;;;;;;;;;;;5084677;28;19920;-76
2022/09/20 18:12:26;;;;;;;;;;;;;;;;;;5085241;28;19912;-76
2022/09/20 18:15:12;;;;;;;;;;;;;;;;;;5081099;28;19928;-77
2022/09/20 18:17:59;;;;;;;;;;;;;;;;;;5077095;28;19912;-77
2022/09/20 18:20:45;;;;;;;;;;;;;;;;;;5089229;28;19909;-76
2022/09/20 18:23:31;;;;;;;;;;;;;;;;;;5086329;28;20630;-76
2022/09/20 18:26:21;;;;;;;;;;;;;;;;;;5081362;28;19931;-76
2022/09/20 18:29:11;;;;;;;;;;;;;;;;;;5085230;28;19935;-78
2022/09/20 18:31:58;;;;;;;;;;;;;;;;;;5085184;28;20283;-76
2022/09/20 18:34:49;;;;;;;;;;;;;;;;;;5084853;28;19927;-78
2022/09/20 18:37:36;;;;;;;;;;;;;;;;;;5083976;28;19920;-77
2022/09/20 18:40:23;;;;;;;;;;;;;;;;;;5075903;28;19918;-76
2022/09/20 18:43:09;;;;;;;;;;;;;;;;;;5082014;28;19926;-77
2022/09/20 18:45:56;;;;;;;;;;;;;;;;;;5080404;28;19916;-77
2022/09/20 18:48:42;;;;;;;;;;;;;;;;;;5086033;28;19919;-75
2022/09/20 18:51:29;;;;;;;;;;;;;;;;;;5083095;28;19912;-77
2022/09/20 18:54:15;;;;;;;;;;;;;;;;;;5075246;28;19931;-78
2022/09/20 18:57:02;;;;;;;;;;;;;;;;;;5078085;28;19923;-76
2022/09/20 18:59:48;;;;;;;;;;;;;;;;;;5078273;28;20025;-80
2022/09/20 19:02:35;;;;;;;;;;;;;;;;;;5077133;28;19923;-76
2022/09/20 19:05:22;;;;;;;;;;;;;;;;;;5077034;28;19919;-77
2022/09/20 19:08:08;;;;;;;;;;;;;;;;;;5079508;28;20020;-77
2022/09/20 19:10:55;;;;;;;;;;;;;;;;;;5075778;28;19919;-76
2022/09/20 19:13:42;;;;;;;;;;;;;;;;;;5077728;28;19916;-76
2022/09/20 19:16:29;;;;;;;;;;;;;;;;;;5076676;28;19920;-76
2022/09/20 19:19:16;;;;;;;;;;;;;;;;;;5080946;28;19923;-77